Time;durP1;ratioP1;P1;durP2;ratioP2;P2;SDS_P1;SDS_P2;PMS_P1;PMS_P2;Temp;Humidity;BMP_temperature;BMP_pressure;BME280_temperature;BME280_humidity;BME280_pressure;Samples;Min_cycle;Max_cycle;Signal;HPM_P1;HPM_P2
2023/03/10 00:02:08;;;;;;;4.50;1.42;;;9.70;99.90;;;;;;5072852;28;20056;-68
2023/03/10 00:04:35;;;;;;;5.10;1.15;;;9.70;99.90;;;;;;5071701;28;20063;-66
2023/03/10 00:07:02;;;;;;;2.75;0.73;;;9.70;99.90;;;;;;5090025;28;20150;-66
2023/03/10 00:09:29;;;;;;;3.53;1.05;;;9.70;99.90;;;;;;5090032;28;20052;-66
2023/03/10 00:11:56;;;;;;;5.43;0.90;;;9.70;99.90;;;;;;5090428;28;20059;-67
2023/03/10 00:14:22;;;;;;;3.38;0.90;;;9.70;99.90;;;;;;5089918;28;20094;-66
2023/03/10 00:16:49;;;;;;;2.40;0.80;;;9.70;99.90;;;;;;5092746;28;20048;-65
2023/03/10 00:19:16;;;;;;;8.70;2.22;;;9.70;99.90;;;;;;5074745;28;20050;-66
2023/03/10 00:21:44;;;;;;;2.65;1.77;;;9.70;99.90;;;;;;5093247;28;20415;-65
2023/03/10 00:24:11;;;;;;;4.68;1.10;;;9.70;99.90;;;;;;5092204;28;20491;-66
2023/03/10 00:26:37;;;;;;;6.43;1.20;;;9.60;99.90;;;;;;5092793;28;20050;-66
2023/03/10 00:29:04;;;;;;;3.10;1.10;;;9.70;99.90;;;;;;5092482;28;20050;-66
2023/03/10 00:31:33;;;;;;;3.80;0.80;;;9.70;99.90;;;;;;5074219;28;20487;-66
2023/03/10 00:34:00;;;;;;;5.50;1.25;;;9.70;99.90;;;;;;5091710;28;20063;-66
2023/03/10 00:36:27;;;;;;;3.38;0.70;;;9.70;99.90;;;;;;5076691;28;20132;-66
2023/03/10 00:38:55;;;;;;;3.47;0.80;;;9.60;99.90;;;;;;5091928;28;20036;-66
2023/03/10 00:41:23;;;;;;;4.38;0.93;;;9.60;99.90;;;;;;5073477;28;20117;-66
2023/03/10 00:43:50;;;;;;;2.97;0.80;;;9.60;99.90;;;;;;5091028;28;20047;-67
2023/03/10 00:46:17;;;;;;;6.25;1.00;;;9.60;99.90;;;;;;5090948;28;20566;-65
2023/03/10 00:48:44;;;;;;;4.47;0.80;;;9.60;99.90;;;;;;5073125;28;20040;-66
2023/03/10 00:51:11;;;;;;;3.03;0.70;;;9.60;99.90;;;;;;5073803;28;20507;-66
2023/03/10 00:53:38;;;;;;;2.85;0.80;;;9.60;99.90;;;;;;5091673;28;20127;-67
2023/03/10 00:56:07;;;;;;;2.05;0.50;;;9.60;99.90;;;;;;5073956;28;20132;-66
2023/03/10 00:58:34;;;;;;;4.00;0.60;;;9.50;99.90;;;;;;5091880;28;20109;-67
2023/03/10 01:01:01;;;;;;;2.60;0.70;;;9.50;99.90;;;;;;5073746;28;20105;-67
2023/03/10 01:03:28;;;;;;;4.07;0.70;;;9.50;99.90;;;;;;5091900;28;20121;-67
2023/03/10 01:05:55;;;;;;;4.63;0.60;;;9.50;99.90;;;;;;5091607;28;20147;-66
2023/03/10 01:08:21;;;;;;;9.05;1.13;;;9.50;99.90;;;;;;5092029;28;20530;-67
2023/03/10 01:10:48;;;;;;;2.90;0.65;;;9.50;99.90;;;;;;5091093;28;20086;-66
2023/03/10 01:13:16;;;;;;;4.20;0.85;;;9.40;99.90;;;;;;5091474;28;20087;-66
2023/03/10 01:15:47;;;;;;;5.78;1.27;;;9.50;99.90;;;;;;5091186;28;20501;-67
2023/03/10 01:18:14;;;;;;;5.05;1.27;;;9.40;99.90;;;;;;5091600;28;20063;-66
2023/03/10 01:20:41;;;;;;;4.82;0.77;;;9.40;99.90;;;;;;5072984;28;20071;-67
2023/03/10 01:23:19;;;;;;;4.43;1.23;;;9.40;99.90;;;;;;5091311;28;20040;-66
2023/03/10 01:25:46;;;;;;;2.05;0.88;;;9.40;99.90;;;;;;5091412;28;20464;-67
2023/03/10 01:28:13;;;;;;;9.57;1.23;;;9.30;99.90;;;;;;5091719;28;20090;-66
2023/03/10 01:30:40;;;;;;;2.72;0.88;;;9.30;99.90;;;;;;5090666;28;20080;-67
2023/03/10 01:33:07;;;;;;;4.55;0.82;;;9.30;99.90;;;;;;5073235;28;20091;-64
2023/03/10 01:35:34;;;;;;;8.07;0.80;;;9.30;99.90;;;;;;5095044;28;20075;-65
2023/03/10 01:38:00;;;;;;;2.78;0.57;;;9.30;99.90;;;;;;5089315;28;20072;-65
2023/03/10 01:40:27;;;;;;;1.05;0.55;;;9.30;99.90;;;;;;5090834;28;20044;-65
2023/03/10 01:43:18;;;;;;;2.78;0.73;;;9.30;99.90;;;;;;5091122;28;20076;-66
2023/03/10 01:45:45;;;;;;;2.70;0.73;;;9.30;99.90;;;;;;5082379;28;20044;-66
2023/03/10 01:48:13;;;;;;;2.88;0.52;;;9.30;99.90;;;;;;5090787;28;20052;-66
2023/03/10 01:50:39;;;;;;;5.18;1.17;;;9.30;99.90;;;;;;5090656;28;20547;-66
2023/03/10 01:53:06;;;;;;;4.03;0.68;;;9.30;99.90;;;;;;5090839;28;20105;-66
2023/03/10 01:55:34;;;;;;;2.67;0.80;;;9.30;99.90;;;;;;5069445;28;20131;-66
2023/03/10 01:58:01;;;;;;;8.68;1.50;;;9.30;99.90;;;;;;5072808;28;20047;-66
2023/03/10 02:00:28;;;;;;;1.55;0.60;;;9.30;99.90;;;;;;5072688;28;20080;-66
2023/03/10 02:03:08;;;;;;;2.13;0.70;;;9.40;99.90;;;;;;5074429;28;20406;-66
2023/03/10 02:05:47;;;;;;;3.30;0.85;;;9.40;99.90;;;;;;5043015;28;20048;-66
2023/03/10 02:08:14;;;;;;;1.20;0.40;;;9.40;99.90;;;;;;5056964;28;20737;-67
2023/03/10 02:10:41;;;;;;;2.85;0.85;;;9.40;99.90;;;;;;5055390;28;20394;-66
2023/03/10 02:13:08;;;;;;;1.77;0.52;;;9.50;99.90;;;;;;5089658;28;20044;-66
2023/03/10 02:15:35;;;;;;;3.40;0.60;;;9.40;99.90;;;;;;4722601;28;10000738;-66
2023/03/10 02:18:02;;;;;;;3.33;0.77;;;9.50;99.90;;;;;;5049471;28;20055;-66
2023/03/10 02:20:32;;;;;;;3.58;1.08;;;9.50;99.90;;;;;;5046761;28;20076;-66
2023/03/10 02:22:58;;;;;;;3.28;1.13;;;9.50;99.90;;;;;;5084809;28;20040;-66
2023/03/10 02:25:38;;;;;;;2.05;0.60;;;9.50;99.90;;;;;;5049948;28;20059;-65
2023/03/10 02:28:05;;;;;;;3.45;0.75;;;9.50;99.90;;;;;;5082567;28;20056;-66
2023/03/10 02:30:35;;;;;;;2.65;0.70;;;9.50;99.90;;;;;;5080204;28;20126;-67
2023/03/10 02:33:06;;;;;;;1.85;0.88;;;9.40;99.90;;;;;;5044456;28;20472;-65
2023/03/10 02:35:33;;;;;;;2.78;0.93;;;9.40;99.90;;;;;;5064395;28;20041;-65
2023/03/10 02:38:00;;;;;;;3.35;0.65;;;9.40;99.90;;;;;;5081399;28;20374;-65
2023/03/10 02:40:36;;;;;;;2.92;0.70;;;9.40;99.90;;;;;;5092575;28;20184;-65
2023/03/10 02:43:10;;;;;;;3.97;0.95;;;9.40;99.90;;;;;;5045181;28;20079;-66
2023/03/10 02:45:37;;;;;;;0.77;0.43;;;9.40;99.90;;;;;;5058872;28;20116;-67
2023/03/10 02:48:04;;;;;;;4.85;0.70;;;9.40;99.90;;;;;;5092628;28;20047;-65
2023/03/10 02:50:33;;;;;;;8.88;0.85;;;9.40;99.90;;;;;;5092862;28;20044;-66
2023/03/10 02:53:07;;;;;;;3.08;0.98;;;9.40;99.90;;;;;;5055467;28;20432;-65
2023/03/10 02:55:33;;;;;;;5.05;0.80;;;9.40;99.90;;;;;;5056040;28;20040;-65
2023/03/10 02:58:01;;;;;;;2.15;0.80;;;9.40;99.90;;;;;;5072879;28;20058;-65
2023/03/10 03:00:28;;;;;;;7.05;1.15;;;9.40;99.90;;;;;;5090238;28;20051;-65
2023/03/10 03:02:56;;;;;;;4.15;1.00;;;9.30;99.90;;;;;;5090527;28;20135;-66
2023/03/10 03:05:23;;;;;;;4.82;1.02;;;9.30;99.90;;;;;;5089673;28;20131;-65
2023/03/10 03:07:49;;;;;;;4.70;1.45;;;9.30;99.90;;;;;;5090747;28;20048;-66
2023/03/10 03:10:16;;;;;;;1.75;0.82;;;9.40;99.90;;;;;;5071683;28;20051;-66
2023/03/10 03:12:43;;;;;;;2.30;0.80;;;9.30;99.90;;;;;;5090373;28;20048;-66
2023/03/10 03:15:10;;;;;;;1.33;0.80;;;9.40;99.90;;;;;;5089438;28;20054;-66
2023/03/10 03:17:37;;;;;;;4.63;1.42;;;9.40;99.90;;;;;;5090393;28;20479;-64
2023/03/10 03:20:12;;;;;;;5.65;0.90;;;9.40;99.90;;;;;;5071740;28;20036;-65
2023/03/10 03:22:40;;;;;;;2.42;0.70;;;9.40;99.90;;;;;;5090025;28;20087;-65
2023/03/10 03:25:08;;;;;;;2.70;0.90;;;9.40;99.90;;;;;;5081961;28;20058;-65
2023/03/10 03:27:35;;;;;;;3.30;0.93;;;9.40;99.90;;;;;;5090230;28;20063;-66
2023/03/10 03:30:04;;;;;;;2.72;0.70;;;9.40;99.90;;;;;;5089594;28;20051;-65
2023/03/10 03:32:31;;;;;;;3.83;0.90;;;9.40;99.90;;;;;;5089735;28;20055;-65
2023/03/10 03:34:58;;;;;;;3.20;0.75;;;9.40;99.90;;;;;;5089707;28;20040;-65
2023/03/10 03:37:25;;;;;;;2.38;0.82;;;9.40;99.90;;;;;;5089792;28;20044;-65
2023/03/10 03:39:52;;;;;;;4.97;0.82;;;9.40;99.90;;;;;;5071617;28;20046;-65
2023/03/10 03:42:18;;;;;;;1.98;1.00;;;9.40;99.90;;;;;;5089724;28;20044;-65
2023/03/10 03:44:45;;;;;;;6.30;0.93;;;9.40;99.90;;;;;;5089234;28;20446;-65
2023/03/10 03:47:12;;;;;;;4.05;1.00;;;9.40;99.90;;;;;;5071496;28;20044;-66
2023/03/10 03:49:39;;;;;;;2.50;0.82;;;9.30;99.90;;;;;;5089389;28;20044;-65
2023/03/10 03:52:06;;;;;;;4.68;1.27;;;9.30;99.90;;;;;;5087503;28;20105;-65
2023/03/10 03:54:33;;;;;;;4.05;1.25;;;9.40;99.90;;;;;;5070835;28;20076;-65
2023/03/10 03:56:59;;;;;;;4.88;1.35;;;9.30;99.90;;;;;;5071107;28;20047;-66
2023/03/10 03:59:26;;;;;;;3.92;1.00;;;9.30;99.90;;;;;;5089243;28;20048;-65
2023/03/10 04:01:53;;;;;;;5.95;2.53;;;9.40;99.90;;;;;;5088695;28;20048;-65
2023/03/10 04:04:19;;;;;;;5.30;1.60;;;9.40;99.90;;;;;;5084446;28;20491;-65
2023/03/10 04:06:46;;;;;;;2.67;1.27;;;9.40;99.90;;;;;;5078940;28;20039;-65
2023/03/10 04:09:13;;;;;;;6.18;1.70;;;9.40;99.90;;;;;;5089675;28;20055;-65
2023/03/10 04:11:40;;;;;;;3.50;1.95;;;9.40;99.90;;;;;;5089403;28;20051;-66
2023/03/10 04:14:06;;;;;;;5.80;1.85;;;9.40;99.90;;;;;;5088970;28;20044;-65
2023/03/10 04:16:33;;;;;;;6.07;1.98;;;9.40;99.90;;;;;;5071067;28;20040;-65
2023/03/10 04:19:00;;;;;;;2.08;1.50;;;9.30;99.90;;;;;;5089340;28;20054;-65
2023/03/10 04:21:27;;;;;;;4.28;1.83;;;9.30;99.90;;;;;;5089079;28;20548;-66
2023/03/10 04:23:54;;;;;;;8.57;1.70;;;9.30;99.90;;;;;;5092819;28;20044;-66
2023/03/10 04:26:20;;;;;;;7.50;2.13;;;9.30;99.90;;;;;;5058308;28;20118;-66
2023/03/10 04:28:47;;;;;;;8.45;2.15;;;9.30;99.90;;;;;;5092927;28;20570;-66
2023/03/10 04:31:15;;;;;;;6.38;1.83;;;9.30;99.90;;;;;;5092737;28;20143;-65
2023/03/10 04:33:42;;;;;;;9.65;2.45;;;9.30;99.90;;;;;;5092777;28;20048;-66
2023/03/10 04:36:08;;;;;;;9.73;2.28;;;9.30;99.90;;;;;;5092521;28;20131;-66
2023/03/10 04:38:35;;;;;;;8.38;3.33;;;9.30;99.90;;;;;;5091026;28;20052;-66
2023/03/10 04:41:03;;;;;;;12.90;3.55;;;9.30;99.90;;;;;;5091749;28;20048;-66
2023/03/10 04:43:31;;;;;;;7.30;3.03;;;9.20;99.90;;;;;;5090078;28;20058;-67
2023/03/10 04:45:57;;;;;;;9.52;2.47;;;9.20;99.90;;;;;;5056768;28;20142;-66
2023/03/10 04:48:24;;;;;;;13.05;3.17;;;9.20;99.90;;;;;;5073083;28;20101;-66
2023/03/10 04:50:58;;;;;;;9.98;3.25;;;9.20;99.90;;;;;;5091564;28;20193;-67
2023/03/10 04:53:25;;;;;;;;;;;9.30;99.90;;;;;;5091333;28;20473;-67
2023/03/10 04:55:52;;;;;;;6.75;3.42;;;9.30;99.90;;;;;;5073181;28;19920;-67
2023/03/10 04:58:19;;;;;;;12.45;3.08;;;9.20;99.90;;;;;;5090823;28;20418;-66
2023/03/10 05:00:47;;;;;;;7.75;3.55;;;9.20;99.90;;;;;;5091470;28;20051;-66
2023/03/10 05:03:28;;;;;;;10.02;4.65;;;9.20;99.90;;;;;;5091007;28;20417;-67
2023/03/10 05:05:55;;;;;;;11.40;7.07;;;9.20;99.90;;;;;;5091619;28;20047;-67
2023/03/10 05:08:22;;;;;;;12.80;8.25;;;9.00;99.90;;;;;;5090812;28;20040;-66
2023/03/10 05:10:48;;;;;;;20.23;10.52;;;8.80;99.90;;;;;;5091100;28;20131;-66
2023/03/10 05:13:15;;;;;;;15.70;9.43;;;8.70;99.90;;;;;;5090438;28;20161;-67
2023/03/10 05:15:42;;;;;;;9.20;7.10;;;8.60;99.90;;;;;;5091027;28;20044;-66
2023/03/10 05:18:10;;;;;;;16.42;7.65;;;8.50;99.90;;;;;;5090014;28;20052;-66
2023/03/10 05:20:37;;;;;;;18.05;8.15;;;8.30;99.90;;;;;;5072644;28;20123;-68
2023/03/10 05:23:04;;;;;;;10.68;7.72;;;8.20;99.90;;;;;;5072310;28;20044;-65
2023/03/10 05:25:31;;;;;;;11.63;8.02;;;8.10;99.90;;;;;;5090479;28;20048;-65
2023/03/10 05:27:57;;;;;;;10.43;7.20;;;8.00;99.90;;;;;;5081286;28;20086;-65
2023/03/10 05:30:24;;;;;;;9.50;7.00;;;7.90;99.90;;;;;;5090505;28;20319;-66
2023/03/10 05:32:51;;;;;;;10.70;6.10;;;7.80;99.90;;;;;;5072268;28;20059;-66
2023/03/10 05:35:18;;;;;;;10.65;7.13;;;7.70;99.90;;;;;;5090063;28;20044;-66
2023/03/10 05:37:44;;;;;;;7.43;5.75;;;7.60;99.90;;;;;;5072760;28;20044;-65
2023/03/10 05:40:12;;;;;;;8.38;6.30;;;7.50;99.90;;;;;;5090292;28;20060;-66
2023/03/10 05:42:39;;;;;;;7.40;5.35;;;7.50;99.90;;;;;;5090230;28;20083;-66
2023/03/10 05:45:09;;;;;;;6.30;4.80;;;7.40;99.90;;;;;;5071778;28;20135;-66
2023/03/10 05:47:35;;;;;;;9.43;5.70;;;7.30;99.90;;;;;;5072921;28;20044;-66
2023/03/10 05:50:02;;;;;;;6.35;4.93;;;7.20;99.90;;;;;;5071648;28;20306;-66
2023/03/10 05:52:29;;;;;;;8.77;5.22;;;7.10;99.90;;;;;;5090362;28;20135;-65
2023/03/10 05:54:56;;;;;;;10.38;5.40;;;7.10;99.90;;;;;;5071395;28;20040;-65
2023/03/10 05:57:22;;;;;;;11.05;4.47;;;7.10;99.90;;;;;;5090008;28;20044;-65
2023/03/10 05:59:49;;;;;;;7.28;4.53;;;7.00;99.90;;;;;;5089810;28;20165;-65
2023/03/10 06:02:16;;;;;;;7.65;4.78;;;6.90;99.90;;;;;;5071894;28;20131;-65
2023/03/10 06:04:42;;;;;;;9.73;4.50;;;6.90;99.90;;;;;;5089265;28;20118;-65
2023/03/10 06:07:09;;;;;;;4.72;3.35;;;6.90;99.90;;;;;;5090010;28;20509;-66
2023/03/10 06:09:36;;;;;;;7.43;4.15;;;6.80;99.90;;;;;;5090047;28;20044;-66
2023/03/10 06:12:03;;;;;;;8.52;3.92;;;6.70;99.90;;;;;;5090078;28;20048;-66
2023/03/10 06:14:30;;;;;;;5.75;4.22;;;6.60;99.90;;;;;;5089338;28;20044;-67
2023/03/10 06:16:56;;;;;;;5.60;3.65;;;6.60;99.90;;;;;;5089797;28;20048;-66
2023/03/10 06:19:23;;;;;;;6.40;4.47;;;6.50;99.90;;;;;;5071471;28;20055;-66
2023/03/10 06:21:50;;;;;;;6.57;4.00;;;6.60;99.90;;;;;;5071466;28;20050;-66
2023/03/10 06:24:17;;;;;;;4.90;3.28;;;6.50;99.90;;;;;;5055112;28;20052;-66
2023/03/10 06:26:44;;;;;;;4.63;2.78;;;6.30;99.90;;;;;;5054686;28;20501;-66
2023/03/10 06:29:10;;;;;;;5.35;3.25;;;6.30;99.90;;;;;;5071863;28;20040;-66
2023/03/10 06:31:40;;;;;;;5.85;3.50;;;6.20;99.90;;;;;;5089740;28;20044;-66
2023/03/10 06:34:06;;;;;;;5.25;3.40;;;6.20;99.90;;;;;;5071805;28;20113;-66
2023/03/10 06:36:33;;;;;;;6.22;3.67;;;6.20;99.90;;;;;;5088733;28;20071;-66
2023/03/10 06:39:00;;;;;;;7.88;3.35;;;6.20;99.90;;;;;;5089227;28;20123;-66
2023/03/10 06:41:27;;;;;;;5.65;3.40;;;6.20;99.90;;;;;;5089007;28;20048;-66
2023/03/10 06:43:54;;;;;;;3.67;2.75;;;6.10;99.90;;;;;;5071330;28;20097;-66
2023/03/10 06:46:20;;;;;;;4.28;2.83;;;6.20;99.90;;;;;;5088408;28;20475;-67
2023/03/10 06:48:48;;;;;;;3.25;2.60;;;6.20;99.90;;;;;;5071589;28;20471;-66
2023/03/10 06:51:17;;;;;;;2.67;2.03;;;6.10;99.90;;;;;;5089327;28;20040;-66
2023/03/10 06:53:43;;;;;;;3.78;2.45;;;6.10;99.90;;;;;;5089172;28;20069;-66
2023/03/10 06:56:15;;;;;;;2.78;2.10;;;6.00;99.90;;;;;;5089570;28;20134;-66
2023/03/10 06:58:42;;;;;;;3.85;2.22;;;5.90;99.90;;;;;;5088939;28;20083;-66
2023/03/10 07:01:17;;;;;;;4.75;2.10;;;5.80;99.90;;;;;;5070605;28;20454;-66
2023/03/10 07:03:44;;;;;;;2.97;1.83;;;5.80;99.90;;;;;;5070019;28;20044;-65
2023/03/10 07:06:11;;;;;;;2.53;1.60;;;5.70;99.90;;;;;;5088452;28;20123;-66
2023/03/10 07:08:38;;;;;;;2.72;1.90;;;5.70;99.90;;;;;;5068962;28;20044;-66
2023/03/10 07:11:04;;;;;;;2.13;1.67;;;5.80;99.90;;;;;;5071736;28;20518;-66
2023/03/10 07:13:31;;;;;;;2.63;1.88;;;5.80;99.90;;;;;;5088031;28;20056;-65
2023/03/10 07:15:58;;;;;;;3.13;1.50;;;5.80;99.90;;;;;;5070545;28;20048;-67
2023/03/10 07:18:28;;;;;;;1.60;1.17;;;5.80;99.90;;;;;;5088779;28;20083;-66
2023/03/10 07:20:55;;;;;;;1.77;1.35;;;5.70;99.90;;;;;;5088050;28;20047;-66
2023/03/10 07:23:22;;;;;;;1.52;1.00;;;5.70;99.90;;;;;;5069190;28;20340;-67
2023/03/10 07:25:53;;;;;;;1.27;1.00;;;5.60;99.90;;;;;;5087913;28;20079;-66
2023/03/10 07:28:19;;;;;;;1.88;1.30;;;5.70;99.90;;;;;;5070177;28;20059;-66
2023/03/10 07:30:48;;;;;;;1.60;0.98;;;5.70;99.90;;;;;;5088402;28;20123;-66
2023/03/10 07:33:15;;;;;;;2.47;1.33;;;5.70;99.90;;;;;;5070007;28;20135;-66
2023/03/10 07:35:42;;;;;;;2.20;1.40;;;5.70;99.90;;;;;;5088517;28;20072;-68
2023/03/10 07:38:09;;;;;;;3.10;0.95;;;5.60;99.90;;;;;;5070588;28;20044;-66
2023/03/10 07:40:37;;;;;;;1.70;1.38;;;5.60;99.90;;;;;;5070927;28;20505;-67
2023/03/10 07:43:04;;;;;;;1.25;1.15;;;5.60;99.90;;;;;;5088609;28;20056;-66
2023/03/10 07:45:32;;;;;;;2.60;1.60;;;5.60;99.90;;;;;;5088018;28;20055;-67
2023/03/10 07:47:59;;;;;;;1.80;1.00;;;5.60;99.90;;;;;;5086444;28;20044;-68
2023/03/10 07:50:25;;;;;;;2.35;1.40;;;5.60;99.90;;;;;;5086319;28;20046;-67
2023/03/10 07:52:53;;;;;;;1.75;1.10;;;5.50;99.90;;;;;;5086535;28;20090;-67
2023/03/10 07:55:20;;;;;;;2.42;1.20;;;5.50;99.90;;;;;;5083684;28;20098;-66
2023/03/10 07:57:47;;;;;;;3.95;1.42;;;5.50;99.90;;;;;;5070040;28;20040;-66
2023/03/10 08:00:14;;;;;;;2.20;1.10;;;5.50;99.90;;;;;;5090062;28;20119;-66
2023/03/10 08:02:41;;;;;;;3.03;2.00;;;5.40;99.90;;;;;;5071010;28;20055;-67
2023/03/10 08:05:09;;;;;;;1.00;0.75;;;5.40;99.90;;;;;;5088688;28;20531;-66
2023/03/10 08:07:36;;;;;;;0.65;0.65;;;5.30;99.90;;;;;;5070623;28;20107;-66
2023/03/10 08:10:04;;;;;;;1.05;0.82;;;5.20;99.90;;;;;;5089014;28;20082;-66
2023/03/10 08:12:30;;;;;;;3.47;1.25;;;5.20;99.90;;;;;;5073233;28;20052;-67
2023/03/10 08:14:57;;;;;;;1.60;0.75;;;5.30;99.90;;;;;;5091067;28;20044;-66
2023/03/10 08:17:29;;;;;;;2.15;1.00;;;5.20;99.90;;;;;;5091376;28;20128;-66
2023/03/10 08:19:57;;;;;;;2.10;1.10;;;5.10;99.90;;;;;;5073127;28;20036;-67
2023/03/10 08:22:24;;;;;;;1.08;0.80;;;5.00;99.90;;;;;;5089877;28;20052;-67
2023/03/10 08:24:51;;;;;;;1.17;0.70;;;4.90;99.90;;;;;;5090476;28;20136;-66
2023/03/10 08:27:17;;;;;;;0.70;0.70;;;4.80;99.90;;;;;;5079745;28;20457;-66
2023/03/10 08:29:44;;;;;;;2.45;0.88;;;4.60;99.90;;;;;;5072429;28;20054;-67
2023/03/10 08:32:11;;;;;;;1.00;0.70;;;4.70;99.90;;;;;;5090466;28;20587;-65
2023/03/10 08:34:38;;;;;;;1.50;0.80;;;4.40;99.90;;;;;;5089778;28;20048;-65
2023/03/10 08:37:05;;;;;;;0.68;0.63;;;4.20;99.90;;;;;;5090601;28;20164;-65
2023/03/10 08:39:32;;;;;;;0.95;0.70;;;4.20;99.90;;;;;;5103260;28;20476;-63
2023/03/10 08:41:58;;;;;;;1.65;0.63;;;4.10;99.90;;;;;;5091085;28;20044;-66
2023/03/10 08:44:25;;;;;;;2.10;0.90;;;4.20;99.90;;;;;;5072403;28;20495;-64
2023/03/10 08:46:52;;;;;;;1.63;0.90;;;4.10;99.90;;;;;;5090334;28;20056;-66
2023/03/10 08:49:20;;;;;;;1.38;1.27;;;4.00;99.90;;;;;;5053033;28;20144;-65
2023/03/10 08:51:47;;;;;;;0.98;0.75;;;4.10;99.90;;;;;;5071009;28;20994;-65
2023/03/10 08:54:15;;;;;;;3.97;1.38;;;3.90;99.90;;;;;;5088105;28;20293;-65
2023/03/10 08:56:42;;;;;;;5.25;1.25;;;4.00;99.90;;;;;;5090684;28;20724;-64
2023/03/10 08:59:09;;;;;;;2.50;1.25;;;3.90;99.90;;;;;;5072640;28;20123;-64
2023/03/10 09:01:36;;;;;;;4.05;1.08;;;3.80;99.90;;;;;;5072023;28;20463;-68
2023/03/10 09:04:03;;;;;;;2.47;1.20;;;3.80;99.90;;;;;;5089608;28;20634;-65
2023/03/10 09:06:30;;;;;;;2.60;1.35;;;3.80;99.90;;;;;;5079955;28;20048;-65
2023/03/10 09:08:57;;;;;;;1.48;1.13;;;3.80;99.90;;;;;;5071401;28;20044;-66
2023/03/10 09:11:26;;;;;;;2.45;0.88;;;3.70;99.90;;;;;;5090188;28;20070;-64
2023/03/10 09:13:53;;;;;;;1.05;0.70;;;3.80;99.90;;;;;;5087533;28;20047;-64
2023/03/10 09:16:20;;;;;;;1.42;0.90;;;3.60;99.90;;;;;;5072178;28;20083;-64
2023/03/10 09:18:47;;;;;;;2.38;0.50;;;3.60;99.90;;;;;;5090559;28;20147;-65
2023/03/10 09:21:15;;;;;;;1.83;1.02;;;3.50;99.90;;;;;;5090597;28;20046;-66
2023/03/10 09:23:43;;;;;;;1.48;0.55;;;3.50;99.90;;;;;;5070826;28;20076;-66
2023/03/10 09:26:09;;;;;;;0.88;0.50;;;3.50;99.90;;;;;;5090605;28;20035;-65
2023/03/10 09:28:36;;;;;;;1.77;0.60;;;3.40;99.90;;;;;;5089323;28;20048;-65
2023/03/10 09:31:04;;;;;;;2.80;1.08;;;3.30;99.90;;;;;;5089989;28;20048;-65
2023/03/10 09:33:31;;;;;;;3.03;1.23;;;3.30;99.90;;;;;;5087898;28;20215;-66
2023/03/10 09:35:58;;;;;;;2.28;1.15;;;3.30;99.90;;;;;;5090491;28;20062;-66
2023/03/10 09:38:34;;;;;;;1.60;0.88;;;3.40;99.90;;;;;;5057395;28;20072;-67
2023/03/10 09:41:01;;;;;;;1.02;0.50;;;3.30;99.90;;;;;;5072162;28;20048;-66
2023/03/10 09:43:27;;;;;;;0.80;0.60;;;3.20;99.90;;;;;;5089389;28;20075;-66
2023/03/10 09:46:03;;;;;;;1.60;0.40;;;3.30;99.90;;;;;;5089886;28;20135;-66
2023/03/10 09:48:52;;;;;;;0.73;0.50;;;3.30;99.90;;;;;;5072166;28;20083;-66
2023/03/10 09:51:23;;;;;;;2.63;1.00;;;3.20;99.90;;;;;;5089852;28;20044;-66
2023/03/10 09:53:56;;;;;;;2.08;0.60;;;3.20;99.90;;;;;;5088917;28;20117;-66
2023/03/10 09:56:30;;;;;;;3.38;0.80;;;3.30;99.90;;;;;;5090493;28;20123;-66
2023/03/10 09:59:23;;;;;;;1.63;0.52;;;3.30;99.90;;;;;;5052164;28;20518;-66
2023/03/10 10:01:50;;;;;;;5.32;0.70;;;3.40;99.90;;;;;;5074706;28;20119;-65
2023/03/10 10:04:36;;;;;;;1.25;0.60;;;3.30;99.90;;;;;;5071496;28;20052;-65
2023/03/10 10:07:06;;;;;;;0.88;0.35;;;3.30;99.90;;;;;;5052992;28;20048;-66
2023/03/10 10:09:52;;;;;;;0.63;0.40;;;3.50;99.90;;;;;;5071416;28;20051;-66
2023/03/10 10:12:22;;;;;;;5.35;0.60;;;3.30;99.90;;;;;;5052780;28;20070;-66
2023/03/10 10:14:55;;;;;;;2.13;1.50;;;3.30;99.90;;;;;;5072797;28;20462;-66
2023/03/10 10:17:46;;;;;;;7.35;1.75;;;3.40;99.90;;;;;;5069515;28;20052;-66
2023/03/10 10:21:01;;;;;;;1.10;0.50;;;3.40;99.90;;;;;;5067232;28;20044;-65
2023/03/10 10:23:40;;;;;;;1.55;0.40;;;3.50;99.90;;;;;;5056982;28;20047;-66
2023/03/10 10:26:14;;;;;;;0.65;0.38;;;3.50;99.90;;;;;;5089641;28;20076;-66
2023/03/10 10:28:48;;;;;;;2.90;0.52;;;3.50;99.90;;;;;;5088801;28;20059;-66
2023/03/10 10:31:19;;;;;;;0.38;0.38;;;3.50;99.90;;;;;;5055196;28;20043;-65
2023/03/10 10:33:53;;;;;;;1.95;0.30;;;3.60;99.90;;;;;;5070106;28;20083;-66
2023/03/10 10:36:20;;;;;;;0.40;0.40;;;3.50;99.90;;;;;;5070740;28;20048;-65
2023/03/10 10:38:51;;;;;;;0.50;0.40;;;3.50;99.90;;;;;;5053922;28;20044;-65
2023/03/10 10:41:20;;;;;;;0.52;0.40;;;3.60;99.90;;;;;;5071395;28;20044;-66
2023/03/10 10:43:47;;;;;;;1.40;0.40;;;3.60;99.90;;;;;;5038594;28;20055;-65
2023/03/10 10:46:15;;;;;;;1.05;0.38;;;3.80;99.90;;;;;;5073301;28;20649;-65
2023/03/10 10:48:44;;;;;;;0.50;0.50;;;3.70;99.90;;;;;;5091580;28;20059;-66
2023/03/10 10:51:26;;;;;;;0.50;0.50;;;3.90;99.90;;;;;;5073954;28;20104;-66
2023/03/10 10:53:53;;;;;;;1.67;1.40;;;4.00;99.90;;;;;;5091621;28;20559;-65
2023/03/10 10:56:20;;;;;;;5.20;0.50;;;4.20;99.90;;;;;;5073361;28;20094;-65
2023/03/10 10:59:26;;;;;;;0.65;0.43;;;4.20;99.90;;;;;;5073517;28;20054;-64
2023/03/10 11:01:58;;;;;;;0.55;0.38;;;4.30;99.90;;;;;;5089061;28;20044;-65
2023/03/10 11:04:26;;;;;;;0.60;0.40;;;4.30;99.90;;;;;;5071761;28;20396;-65
2023/03/10 11:07:10;;;;;;;3.63;0.57;;;4.40;99.90;;;;;;5089679;28;20043;-65
2023/03/10 11:09:37;;;;;;;0.50;0.50;;;4.40;99.90;;;;;;5090396;28;20046;-66
2023/03/10 11:12:19;;;;;;;0.50;0.47;;;4.50;99.90;;;;;;5089924;28;20052;-65
2023/03/10 11:14:48;;;;;;;0.65;0.60;;;4.50;99.90;;;;;;5072263;28;20059;-66
2023/03/10 11:17:26;;;;;;;0.95;0.50;;;4.60;99.90;;;;;;5088415;28;20086;-65
2023/03/10 11:20:24;;;;;;;2.65;0.70;;;4.60;99.90;;;;;;5088566;28;20048;-65
2023/03/10 11:23:13;;;;;;;2.55;0.85;;;4.50;99.90;;;;;;5086064;28;20056;-67
2023/03/10 11:25:41;;;;;;;0.63;0.35;;;4.50;99.90;;;;;;5070063;28;20047;-66
2023/03/10 11:28:27;;;;;;;1.77;0.40;;;4.40;99.90;;;;;;5070904;28;20078;-65
2023/03/10 11:31:18;;;;;;;0.80;0.68;;;4.30;99.90;;;;;;5088810;28;20036;-66
2023/03/10 11:34:37;;;;;;;0.65;0.55;;;4.30;99.90;;;;;;5083312;28;20083;-65
2023/03/10 11:37:13;;;;;;;0.30;0.30;;;4.30;99.90;;;;;;5077016;28;20048;-66
2023/03/10 11:39:47;;;;;;;0.60;0.52;;;4.30;99.90;;;;;;5074246;28;20574;-65
2023/03/10 11:42:37;;;;;;;0.50;0.50;;;4.40;99.90;;;;;;5074865;28;20508;-65
2023/03/10 11:45:27;;;;;;;0.80;0.45;;;4.40;99.90;;;;;;5092252;28;20459;-64
2023/03/10 11:48:03;;;;;;;1.17;0.57;;;4.40;99.90;;;;;;5074188;28;20086;-65
2023/03/10 11:50:41;;;;;;;0.52;0.45;;;4.40;99.90;;;;;;5054333;28;20061;-66
2023/03/10 11:53:12;;;;;;;2.80;1.48;;;4.40;99.90;;;;;;5074071;28;20131;-67
2023/03/10 11:55:39;;;;;;;0.50;0.50;;;4.50;99.90;;;;;;5070969;28;20084;-65
2023/03/10 11:58:05;;;;;;;1.35;0.60;;;4.30;99.90;;;;;;5073834;28;20051;-65
2023/03/10 12:00:37;;;;;;;1.90;0.82;;;4.40;99.90;;;;;;5073751;28;20048;-66
2023/03/10 12:03:19;;;;;;;2.67;0.90;;;4.40;99.90;;;;;;5053063;28;20574;-65
2023/03/10 12:05:49;;;;;;;2.03;1.10;;;4.40;99.90;;;;;;5074558;28;20048;-65
2023/03/10 12:08:17;;;;;;;1.40;1.08;;;4.30;99.90;;;;;;5073972;28;20040;-65
2023/03/10 12:10:43;;;;;;;2.08;1.10;;;4.40;99.90;;;;;;5056837;28;20420;-65
2023/03/10 12:13:20;;;;;;;3.92;1.15;;;4.40;99.90;;;;;;5073382;28;20058;-65
2023/03/10 12:15:46;;;;;;;5.15;1.10;;;4.40;99.90;;;;;;5073832;28;20040;-65
2023/03/10 12:18:13;;;;;;;5.50;1.65;;;4.40;99.90;;;;;;5073303;28;20131;-64
2023/03/10 12:20:40;;;;;;;2.70;1.50;;;4.40;99.90;;;;;;5091588;28;20392;-66
2023/03/10 12:23:09;;;;;;;2.88;1.48;;;4.40;99.90;;;;;;5091205;28;20044;-65
2023/03/10 12:25:37;;;;;;;3.78;1.65;;;4.30;99.90;;;;;;5091295;28;20079;-66
2023/03/10 12:28:15;;;;;;;1.00;0.90;;;4.50;99.90;;;;;;5091162;28;20040;-65
2023/03/10 12:30:50;;;;;;;2.88;1.30;;;4.30;99.90;;;;;;5091359;28;20080;-65
2023/03/10 12:36:08;;;;;;;2.80;1.00;;;4.40;99.90;;;;;;5091468;28;20487;-65
2023/03/10 12:38:43;;;;;;;3.67;1.00;;;4.60;99.90;;;;;;5090636;28;20130;-66
2023/03/10 12:41:10;;;;;;;1.15;0.80;;;4.60;99.90;;;;;;5073970;28;20056;-66
2023/03/10 12:43:46;;;;;;;4.65;0.90;;;4.70;99.90;;;;;;5071359;28;20050;-66
2023/03/10 12:46:17;;;;;;;1.42;0.68;;;4.70;99.90;;;;;;5091255;28;20477;-66
2023/03/10 12:48:48;;;;;;;4.35;1.25;;;4.80;99.90;;;;;;5039948;28;20055;-67
2023/03/10 12:51:17;;;;;;;1.35;0.60;;;4.80;99.90;;;;;;5072833;28;20136;-65
2023/03/10 12:53:55;;;;;;;2.10;0.60;;;4.90;99.90;;;;;;5090525;28;20127;-66
2023/03/10 12:56:37;;;;;;;5.28;1.13;;;5.00;99.90;;;;;;5063029;28;20054;-65
2023/03/10 12:59:30;;;;;;;2.85;1.85;;;5.00;99.90;;;;;;5090771;28;20450;-65
2023/03/10 13:01:56;;;;;;;0.90;0.60;;;5.10;99.90;;;;;;5072929;28;20052;-65
2023/03/10 13:04:23;;;;;;;1.27;0.73;;;5.00;99.90;;;;;;5090381;28;20490;-66
2023/03/10 13:06:50;;;;;;;2.38;1.60;;;5.20;99.90;;;;;;5072836;28;20139;-65
2023/03/10 13:09:42;;;;;;;3.85;0.80;;;4.90;99.90;;;;;;5056083;28;20484;-65
2023/03/10 13:12:20;;;;;;;3.47;0.70;;;4.90;99.90;;;;;;5067559;28;20097;-66
2023/03/10 13:14:51;;;;;;;0.80;0.80;;;4.80;99.90;;;;;;5055015;28;20048;-64